<?xml version='1.0' encoding='UTF-8'?><gpx version="1.1" creator="JPX - https://github.com/jenetics/jpx" xmlns="http://www.topografix.com/GPX/1/1"><trk><trkseg><trkpt lat="45.7595233" lon="8.9681383"><ele>385.00000000000006</ele><time>2026-03-25T14:02:40.787Z</time></trkpt><trkpt lat="45.7595883" lon="8.9681283"><ele>385.0</ele><time>2026-03-25T14:02:53.788Z</time></trkpt><trkpt lat="45.7596468" lon="8.9681788"><ele>385.0</ele><time>2026-03-25T14:03:04.871Z</time></trkpt><trkpt lat="45.7596983" lon="8.9682797"><ele>385.0</ele><time>2026-03-25T14:03:08.787Z</time></trkpt><trkpt lat="45.7597562" lon="8.9683877"><ele>385.00000000000006</ele><time>2026-03-25T14:03:11.765Z</time></trkpt><trkpt lat="45.7597842" lon="8.9684745"><ele>385.0</ele><time>2026-03-25T14:03:13.845Z</time></trkpt><trkpt lat="45.7598053" lon="8.9685712"><ele>384.57142857142856</ele><time>2026-03-25T14:03:15.873Z</time></trkpt><trkpt lat="45.7598171" lon="8.9686649"><ele>384.1428571428571</ele><time>2026-03-25T14:03:17.813Z</time></trkpt><trkpt lat="45.759846" lon="8.9687853"><ele>383.7142857142857</ele><time>2026-03-25T14:03:20.694Z</time></trkpt><trkpt lat="45.7598796" lon="8.9688891"><ele>383.2857142857143</ele><time>2026-03-25T14:03:23.759Z</time></trkpt><trkpt lat="45.7599024" lon="8.9689768"><ele>382.85714285714283</ele><time>2026-03-25T14:03:26.881Z</time></trkpt><trkpt lat="45.7599254" lon="8.9690724"><ele>382.42857142857144</ele><time>2026-03-25T14:03:30.788Z</time></trkpt><trkpt lat="45.7598948" lon="8.9691748"><ele>382.0</ele><time>2026-03-25T14:03:34.881Z</time></trkpt><trkpt lat="45.7598479" lon="8.9692385"><ele>381.7142857142857</ele><time>2026-03-25T14:03:38.789Z</time></trkpt><trkpt lat="45.7597878" lon="8.9693086"><ele>381.4285714285714</ele><time>2026-03-25T14:03:42.788Z</time></trkpt><trkpt lat="45.7597284" lon="8.9693707"><ele>381.1428571428571</ele><time>2026-03-25T14:03:45.897Z</time></trkpt><trkpt lat="45.7596784" lon="8.9694372"><ele>380.8571428571429</ele><time>2026-03-25T14:03:48.787Z</time></trkpt><trkpt lat="45.7596272" lon="8.9695046"><ele>380.57142857142856</ele><time>2026-03-25T14:03:51.838Z</time></trkpt><trkpt lat="45.7595837" lon="8.9695845"><ele>380.2857142857143</ele><time>2026-03-25T14:03:54.75Z</time></trkpt><trkpt lat="45.7595194" lon="8.9696538"><ele>380.0</ele><time>2026-03-25T14:03:59.09Z</time></trkpt><trkpt lat="45.7594509" lon="8.9696719"><ele>380.0</ele><time>2026-03-25T14:04:02.307Z</time></trkpt><trkpt lat="45.7593783" lon="8.9696838"><ele>380.0</ele><time>2026-03-25T14:04:05.507Z</time></trkpt><trkpt lat="45.7593401" lon="8.9697584"><ele>380.0</ele><time>2026-03-25T14:04:11.745Z</time></trkpt><trkpt lat="45.7592824" lon="8.9697952"><ele>380.0</ele><time>2026-03-25T14:04:20.723Z</time></trkpt><trkpt lat="45.7592245" lon="8.9698465"><ele>380.0</ele><time>2026-03-25T14:04:26.708Z</time></trkpt><trkpt lat="45.7591831" lon="8.9699168"><ele>380.0</ele><time>2026-03-25T14:04:30.789Z</time></trkpt><trkpt lat="45.7591788" lon="8.9700277"><ele>380.0</ele><time>2026-03-25T14:04:35.792Z</time></trkpt><trkpt lat="45.7592007" lon="8.9701189"><ele>379.0</ele><time>2026-03-25T14:04:39.838Z</time></trkpt><trkpt lat="45.7592536" lon="8.9701851"><ele>378.0</ele><time>2026-03-25T14:04:44.706Z</time></trkpt><trkpt lat="45.7593223" lon="8.9702282"><ele>377.0</ele><time>2026-03-25T14:04:48.787Z</time></trkpt><trkpt lat="45.7593823" lon="8.9702604"><ele>376.0</ele><time>2026-03-25T14:04:52.88Z</time></trkpt><trkpt lat="45.7594551" lon="8.9702294"><ele>375.0</ele><time>2026-03-25T14:05:02.739Z</time></trkpt><trkpt lat="45.7595226" lon="8.970198"><ele>374.0</ele><time>2026-03-25T14:05:05.842Z</time></trkpt><trkpt lat="45.7595859" lon="8.9701794"><ele>373.0</ele><time>2026-03-25T14:05:09.769Z</time></trkpt><trkpt lat="45.7596657" lon="8.9701503"><ele>372.8571428571429</ele><time>2026-03-25T14:05:14.832Z</time></trkpt><trkpt lat="45.7597444" lon="8.9701246"><ele>372.7142857142857</ele><time>2026-03-25T14:05:19.883Z</time></trkpt><trkpt lat="45.7598074" lon="8.9701163"><ele>372.57142857142856</ele><time>2026-03-25T14:05:22.797Z</time></trkpt><trkpt lat="45.7598708" lon="8.9701087"><ele>372.42857142857144</ele><time>2026-03-25T14:05:26.698Z</time></trkpt><trkpt lat="45.7599467" lon="8.9701069"><ele>372.2857142857143</ele><time>2026-03-25T14:05:30.906Z</time></trkpt><trkpt lat="45.7600168" lon="8.9700874"><ele>372.14285714285717</ele><time>2026-03-25T14:05:33.793Z</time></trkpt><trkpt lat="45.7600867" lon="8.9700643"><ele>372.0</ele><time>2026-03-25T14:05:36.798Z</time></trkpt><trkpt lat="45.7601759" lon="8.9700448"><ele>373.28571428571433</ele><time>2026-03-25T14:05:39.862Z</time></trkpt><trkpt lat="45.760247" lon="8.9700338"><ele>374.57142857142856</ele><time>2026-03-25T14:05:41.812Z</time></trkpt><trkpt lat="45.7603151" lon="8.9700086"><ele>375.8571428571429</ele><time>2026-03-25T14:05:45.876Z</time></trkpt><trkpt lat="45.7603899" lon="8.9699671"><ele>377.14285714285717</ele><time>2026-03-25T14:05:51.762Z</time></trkpt><trkpt lat="45.7604603" lon="8.9699284"><ele>378.42857142857144</ele><time>2026-03-25T14:05:55.903Z</time></trkpt><trkpt lat="45.7605289" lon="8.9698735"><ele>379.7142857142857</ele><time>2026-03-25T14:05:59.797Z</time></trkpt><trkpt lat="45.7605916" lon="8.9698265"><ele>381.0</ele><time>2026-03-25T14:06:03.786Z</time></trkpt><trkpt lat="45.7606536" lon="8.9697961"><ele>381.3333333333333</ele><time>2026-03-25T14:06:06.787Z</time></trkpt><trkpt lat="45.7607196" lon="8.9697589"><ele>381.6666666666667</ele><time>2026-03-25T14:06:09.787Z</time></trkpt><trkpt lat="45.760789" lon="8.9697239"><ele>382.0</ele><time>2026-03-25T14:06:12.787Z</time></trkpt><trkpt lat="45.7608543" lon="8.9697102"><ele>382.33333333333337</ele><time>2026-03-25T14:06:15.837Z</time></trkpt><trkpt lat="45.7609347" lon="8.969684"><ele>382.6666666666667</ele><time>2026-03-25T14:06:18.745Z</time></trkpt><trkpt lat="45.7610125" lon="8.9696662"><ele>383.0</ele><time>2026-03-25T14:06:21.791Z</time></trkpt><trkpt lat="45.7610899" lon="8.9696231"><ele>383.1666666666667</ele><time>2026-03-25T14:06:24.828Z</time></trkpt><trkpt lat="45.7611586" lon="8.9695819"><ele>383.33333333333337</ele><time>2026-03-25T14:06:27.786Z</time></trkpt><trkpt lat="45.7612522" lon="8.9695633"><ele>383.5</ele><time>2026-03-25T14:06:30.787Z</time></trkpt><trkpt lat="45.7613472" lon="8.9695415"><ele>383.6666666666667</ele><time>2026-03-25T14:06:32.729Z</time></trkpt><trkpt lat="45.7614624" lon="8.9695216"><ele>383.8333333333333</ele><time>2026-03-25T14:06:35.787Z</time></trkpt><trkpt lat="45.7615242" lon="8.9694962"><ele>384.0</ele><time>2026-03-25T14:06:36.71Z</time></trkpt><trkpt lat="45.761597" lon="8.9694994"><ele>384.0</ele><time>2026-03-25T14:06:38.861Z</time></trkpt><trkpt lat="45.7616933" lon="8.9695434"><ele>384.0</ele><time>2026-03-25T14:06:42.786Z</time></trkpt><trkpt lat="45.7617841" lon="8.9695507"><ele>384.0</ele><time>2026-03-25T14:06:44.865Z</time></trkpt><trkpt lat="45.7618609" lon="8.9695666"><ele>384.0</ele><time>2026-03-25T14:06:47.796Z</time></trkpt><trkpt lat="45.7619233" lon="8.9695935"><ele>384.0</ele><time>2026-03-25T14:06:50.886Z</time></trkpt><trkpt lat="45.7619889" lon="8.9696492"><ele>384.0</ele><time>2026-03-25T14:06:54.787Z</time></trkpt><trkpt lat="45.7620547" lon="8.9696888"><ele>384.8333333333333</ele><time>2026-03-25T14:07:01.827Z</time></trkpt><trkpt lat="45.7621268" lon="8.9696613"><ele>385.66666666666663</ele><time>2026-03-25T14:07:07.768Z</time></trkpt><trkpt lat="45.7621886" lon="8.9696003"><ele>386.5</ele><time>2026-03-25T14:07:13.801Z</time></trkpt><trkpt lat="45.7622494" lon="8.969565"><ele>387.3333333333333</ele><time>2026-03-25T14:07:19.787Z</time></trkpt><trkpt lat="45.7623149" lon="8.9695747"><ele>388.16666666666663</ele><time>2026-03-25T14:07:24.787Z</time></trkpt><trkpt lat="45.7624187" lon="8.969517"><ele>389.0</ele><time>2026-03-25T14:07:30.787Z</time></trkpt><trkpt lat="45.7624643" lon="8.969442"><ele>389.0</ele><time>2026-03-25T14:07:32.706Z</time></trkpt><trkpt lat="45.7625261" lon="8.9694237"><ele>389.0</ele><time>2026-03-25T14:07:37.887Z</time></trkpt><trkpt lat="45.7625905" lon="8.9694073"><ele>389.0</ele><time>2026-03-25T14:07:43.814Z</time></trkpt><trkpt lat="45.7626509" lon="8.9693771"><ele>389.0</ele><time>2026-03-25T14:07:46.847Z</time></trkpt><trkpt lat="45.762721" lon="8.9693809"><ele>389.0</ele><time>2026-03-25T14:07:52.861Z</time></trkpt><trkpt lat="45.7627904" lon="8.9693718"><ele>389.0</ele><time>2026-03-25T14:07:56.767Z</time></trkpt><trkpt lat="45.7628646" lon="8.9693229"><ele>389.0</ele><time>2026-03-25T14:08:00.787Z</time></trkpt><trkpt lat="45.7629298" lon="8.9692832"><ele>389.66666666666663</ele><time>2026-03-25T14:08:03.821Z</time></trkpt><trkpt lat="45.7630097" lon="8.9692593"><ele>390.3333333333333</ele><time>2026-03-25T14:08:07.816Z</time></trkpt><trkpt lat="45.7630805" lon="8.969201"><ele>391.0</ele><time>2026-03-25T14:08:12.796Z</time></trkpt><trkpt lat="45.7631383" lon="8.9691419"><ele>391.66666666666663</ele><time>2026-03-25T14:08:15.89Z</time></trkpt><trkpt lat="45.7632317" lon="8.9690555"><ele>392.3333333333333</ele><time>2026-03-25T14:08:19.788Z</time></trkpt><trkpt lat="45.7632986" lon="8.9689972"><ele>393.0</ele><time>2026-03-25T14:08:21.846Z</time></trkpt><trkpt lat="45.7633575" lon="8.9689117"><ele>393.00000000000006</ele><time>2026-03-25T14:08:24.824Z</time></trkpt><trkpt lat="45.7634256" lon="8.9688512"><ele>393.0</ele><time>2026-03-25T14:08:27.911Z</time></trkpt><trkpt lat="45.7634853" lon="8.968791"><ele>393.0</ele><time>2026-03-25T14:08:31.787Z</time></trkpt><trkpt lat="45.7635286" lon="8.9687235"><ele>393.0</ele><time>2026-03-25T14:08:35.867Z</time></trkpt><trkpt lat="45.7635826" lon="8.9686591"><ele>393.0</ele><time>2026-03-25T14:08:40.945Z</time></trkpt><trkpt lat="45.7636305" lon="8.9685972"><ele>393.00000000000006</ele><time>2026-03-25T14:08:47.787Z</time></trkpt><trkpt lat="45.7636794" lon="8.9685277"><ele>393.0</ele><time>2026-03-25T14:08:52.749Z</time></trkpt><trkpt lat="45.7637485" lon="8.9684961"><ele>394.1666666666667</ele><time>2026-03-25T14:08:57.091Z</time></trkpt><trkpt lat="45.7638424" lon="8.968435"><ele>395.33333333333337</ele><time>2026-03-25T14:08:59.247Z</time></trkpt><trkpt lat="45.7639045" lon="8.968385"><ele>396.5</ele><time>2026-03-25T14:09:02.479Z</time></trkpt><trkpt lat="45.7639759" lon="8.9683799"><ele>397.6666666666667</ele><time>2026-03-25T14:09:05.729Z</time></trkpt><trkpt lat="45.7640412" lon="8.9683703"><ele>398.83333333333337</ele><time>2026-03-25T14:09:08.787Z</time></trkpt><trkpt lat="45.7641113" lon="8.9683743"><ele>400.0</ele><time>2026-03-25T14:09:11.709Z</time></trkpt><trkpt lat="45.7641944" lon="8.9683698"><ele>400.00000000000006</ele><time>2026-03-25T14:09:14.998Z</time></trkpt><trkpt lat="45.7642579" lon="8.9683815"><ele>400.0</ele><time>2026-03-25T14:09:18.278Z</time></trkpt><trkpt lat="45.7643391" lon="8.9683912"><ele>400.0</ele><time>2026-03-25T14:09:22.584Z</time></trkpt><trkpt lat="45.7644149" lon="8.9683982"><ele>400.0</ele><time>2026-03-25T14:09:25.746Z</time></trkpt><trkpt lat="45.7644703" lon="8.9684578"><ele>400.0</ele><time>2026-03-25T14:09:28.863Z</time></trkpt><trkpt lat="45.7645419" lon="8.9684971"><ele>400.00000000000006</ele><time>2026-03-25T14:09:32.871Z</time></trkpt><trkpt lat="45.7646008" lon="8.9685526"><ele>400.0</ele><time>2026-03-25T14:09:37.726Z</time></trkpt><trkpt lat="45.76466" lon="8.9685862"><ele>400.1666666666667</ele><time>2026-03-25T14:09:43.766Z</time></trkpt><trkpt lat="45.7647187" lon="8.9686531"><ele>400.33333333333337</ele><time>2026-03-25T14:09:51.787Z</time></trkpt><trkpt lat="45.7647821" lon="8.9687033"><ele>400.5</ele><time>2026-03-25T14:09:55.788Z</time></trkpt><trkpt lat="45.7648493" lon="8.9687418"><ele>400.66666666666663</ele><time>2026-03-25T14:09:59.899Z</time></trkpt><trkpt lat="45.7649201" lon="8.9687821"><ele>400.8333333333333</ele><time>2026-03-25T14:10:03.843Z</time></trkpt><trkpt lat="45.7649889" lon="8.9688289"><ele>401.0</ele><time>2026-03-25T14:10:07.728Z</time></trkpt><trkpt lat="45.7650578" lon="8.9688966"><ele>400.99999999999994</ele><time>2026-03-25T14:10:11.82Z</time></trkpt><trkpt lat="45.7651231" lon="8.968955"><ele>401.0</ele><time>2026-03-25T14:10:16.861Z</time></trkpt><trkpt lat="45.7651611" lon="8.9690299"><ele>401.0</ele><time>2026-03-25T14:10:20.79Z</time></trkpt><trkpt lat="45.765209" lon="8.9691239"><ele>401.0</ele><time>2026-03-25T14:10:24.788Z</time></trkpt><trkpt lat="45.7652447" lon="8.9692287"><ele>400.99999999999994</ele><time>2026-03-25T14:10:28.91Z</time></trkpt><trkpt lat="45.7652609" lon="8.9693228"><ele>401.0</ele><time>2026-03-25T14:10:32.136Z</time></trkpt><trkpt lat="45.7652842" lon="8.9694293"><ele>402.3333333333333</ele><time>2026-03-25T14:10:36.365Z</time></trkpt><trkpt lat="45.7652949" lon="8.9695271"><ele>403.66666666666663</ele><time>2026-03-25T14:10:41.673Z</time></trkpt><trkpt lat="45.7653296" lon="8.96964"><ele>405.0</ele><time>2026-03-25T14:10:47.766Z</time></trkpt><trkpt lat="45.7653547" lon="8.9697282"><ele>406.33333333333337</ele><time>2026-03-25T14:10:51.03Z</time></trkpt><trkpt lat="45.7653857" lon="8.969814"><ele>407.6666666666667</ele><time>2026-03-25T14:10:55.318Z</time></trkpt><trkpt lat="45.7654275" lon="8.9699227"><ele>409.0</ele><time>2026-03-25T14:10:57.788Z</time></trkpt><trkpt lat="45.7654715" lon="8.9700101"><ele>409.1428571428571</ele><time>2026-03-25T14:11:00.788Z</time></trkpt><trkpt lat="45.7655165" lon="8.9700863"><ele>409.28571428571433</ele><time>2026-03-25T14:11:03.722Z</time></trkpt><trkpt lat="45.7655653" lon="8.9701444"><ele>409.42857142857144</ele><time>2026-03-25T14:11:06.899Z</time></trkpt><trkpt lat="45.765621" lon="8.970216"><ele>409.57142857142856</ele><time>2026-03-25T14:11:10.727Z</time></trkpt><trkpt lat="45.7656752" lon="8.9702671"><ele>409.71428571428567</ele><time>2026-03-25T14:11:14.829Z</time></trkpt><trkpt lat="45.7657412" lon="8.9703357"><ele>409.8571428571429</ele><time>2026-03-25T14:11:17.796Z</time></trkpt><trkpt lat="45.7657988" lon="8.9703894"><ele>410.0</ele><time>2026-03-25T14:11:19.871Z</time></trkpt><trkpt lat="45.7658692" lon="8.9704588"><ele>409.99999999999994</ele><time>2026-03-25T14:11:22.846Z</time></trkpt><trkpt lat="45.7659322" lon="8.970519"><ele>410.0</ele><time>2026-03-25T14:11:25.746Z</time></trkpt><trkpt lat="45.7660027" lon="8.9706008"><ele>410.0</ele><time>2026-03-25T14:11:28.807Z</time></trkpt><trkpt lat="45.7660658" lon="8.9706717"><ele>410.0</ele><time>2026-03-25T14:11:31.778Z</time></trkpt><trkpt lat="45.7661289" lon="8.9707598"><ele>409.99999999999994</ele><time>2026-03-25T14:11:34.946Z</time></trkpt><trkpt lat="45.7661647" lon="8.9708751"><ele>410.0</ele><time>2026-03-25T14:11:38.168Z</time></trkpt><trkpt lat="45.766222" lon="8.970943"><ele>409.66666666666663</ele><time>2026-03-25T14:11:41.366Z</time></trkpt><trkpt lat="45.7662879" lon="8.9709826"><ele>409.3333333333333</ele><time>2026-03-25T14:11:44.586Z</time></trkpt><trkpt lat="45.7663591" lon="8.9710244"><ele>409.0</ele><time>2026-03-25T14:11:46.749Z</time></trkpt><trkpt lat="45.7664346" lon="8.9710634"><ele>408.66666666666663</ele><time>2026-03-25T14:11:49.786Z</time></trkpt><trkpt lat="45.7665026" lon="8.9710892"><ele>408.3333333333333</ele><time>2026-03-25T14:11:52.786Z</time></trkpt><trkpt lat="45.7665802" lon="8.9711078"><ele>408.0</ele><time>2026-03-25T14:11:56.819Z</time></trkpt><trkpt lat="45.7666553" lon="8.9711111"><ele>408.0</ele><time>2026-03-25T14:11:59.786Z</time></trkpt><trkpt lat="45.766724" lon="8.9711291"><ele>408.0</ele><time>2026-03-25T14:12:02.768Z</time></trkpt><trkpt lat="45.7667906" lon="8.9711353"><ele>408.0</ele><time>2026-03-25T14:12:05.006Z</time></trkpt><trkpt lat="45.766879" lon="8.9711289"><ele>408.0</ele><time>2026-03-25T14:12:08.186Z</time></trkpt><trkpt lat="45.7669488" lon="8.9711322"><ele>408.0</ele><time>2026-03-25T14:12:10.4Z</time></trkpt><trkpt lat="45.7670146" lon="8.9711302"><ele>408.0</ele><time>2026-03-25T14:12:12.547Z</time></trkpt><trkpt lat="45.7671008" lon="8.9711376"><ele>408.0</ele><time>2026-03-25T14:12:15.711Z</time></trkpt><trkpt lat="45.7671723" lon="8.9711345"><ele>406.5</ele><time>2026-03-25T14:12:18.787Z</time></trkpt><trkpt lat="45.7672447" lon="8.9711221"><ele>405.0</ele><time>2026-03-25T14:12:22.788Z</time></trkpt><trkpt lat="45.7673255" lon="8.9711259"><ele>403.5</ele><time>2026-03-25T14:12:26.866Z</time></trkpt><trkpt lat="45.7674078" lon="8.9711097"><ele>402.0</ele><time>2026-03-25T14:12:29.786Z</time></trkpt><trkpt lat="45.7674808" lon="8.9711054"><ele>400.5</ele><time>2026-03-25T14:12:32.862Z</time></trkpt><trkpt lat="45.7675528" lon="8.9711068"><ele>399.0</ele><time>2026-03-25T14:12:35.928Z</time></trkpt><trkpt lat="45.7676226" lon="8.9711036"><ele>399.0</ele><time>2026-03-25T14:12:38.803Z</time></trkpt><trkpt lat="45.7676911" lon="8.9711247"><ele>399.0</ele><time>2026-03-25T14:12:41.787Z</time></trkpt><trkpt lat="45.7677719" lon="8.9711375"><ele>399.0</ele><time>2026-03-25T14:12:45.791Z</time></trkpt><trkpt lat="45.7678465" lon="8.9711414"><ele>399.0</ele><time>2026-03-25T14:12:48.787Z</time></trkpt><trkpt lat="45.7679236" lon="8.9711512"><ele>399.0</ele><time>2026-03-25T14:12:51.768Z</time></trkpt><trkpt lat="45.7679931" lon="8.9711675"><ele>399.0</ele><time>2026-03-25T14:12:53.906Z</time></trkpt><trkpt lat="45.7680633" lon="8.9711689"><ele>399.0</ele><time>2026-03-25T14:12:55.788Z</time></trkpt><trkpt lat="45.7681494" lon="8.9711555"><ele>398.1666666666667</ele><time>2026-03-25T14:12:58.733Z</time></trkpt><trkpt lat="45.7682302" lon="8.9711439"><ele>397.33333333333337</ele><time>2026-03-25T14:13:01.902Z</time></trkpt><trkpt lat="45.7683168" lon="8.9711704"><ele>396.5</ele><time>2026-03-25T14:13:05.702Z</time></trkpt><trkpt lat="45.7683794" lon="8.9711944"><ele>395.6666666666667</ele><time>2026-03-25T14:13:08.787Z</time></trkpt><trkpt lat="45.7684567" lon="8.9712103"><ele>394.83333333333337</ele><time>2026-03-25T14:13:11.889Z</time></trkpt><trkpt lat="45.7685199" lon="8.9711703"><ele>394.0</ele><time>2026-03-25T14:13:14.905Z</time></trkpt><trkpt lat="45.7685938" lon="8.9711561"><ele>393.7142857142857</ele><time>2026-03-25T14:13:20.806Z</time></trkpt><trkpt lat="45.7686581" lon="8.9711656"><ele>393.42857142857144</ele><time>2026-03-25T14:13:26.986Z</time></trkpt><trkpt lat="45.7687238" lon="8.971174"><ele>393.1428571428571</ele><time>2026-03-25T14:13:35.426Z</time></trkpt><trkpt lat="45.7687927" lon="8.9711772"><ele>392.8571428571429</ele><time>2026-03-25T14:13:40.801Z</time></trkpt><trkpt lat="45.7688575" lon="8.9711631"><ele>392.57142857142856</ele><time>2026-03-25T14:13:43.787Z</time></trkpt><trkpt lat="45.7689407" lon="8.971144"><ele>392.2857142857143</ele><time>2026-03-25T14:13:46.747Z</time></trkpt><trkpt lat="45.7690269" lon="8.9711123"><ele>392.0</ele><time>2026-03-25T14:13:49.827Z</time></trkpt><trkpt lat="45.7691002" lon="8.9710647"><ele>391.99999999999994</ele><time>2026-03-25T14:13:52.907Z</time></trkpt><trkpt lat="45.7691659" lon="8.9710342"><ele>392.0</ele><time>2026-03-25T14:13:56.818Z</time></trkpt><trkpt lat="45.7692545" lon="8.9710138"><ele>392.0</ele><time>2026-03-25T14:13:59.78Z</time></trkpt><trkpt lat="45.7693236" lon="8.9709774"><ele>392.0</ele><time>2026-03-25T14:14:01.898Z</time></trkpt><trkpt lat="45.7693852" lon="8.9709536"><ele>391.99999999999994</ele><time>2026-03-25T14:14:04.248Z</time></trkpt><trkpt lat="45.7694668" lon="8.9709272"><ele>392.0</ele><time>2026-03-25T14:14:07.328Z</time></trkpt><trkpt lat="45.7695538" lon="8.970906"><ele>392.14285714285717</ele><time>2026-03-25T14:14:10.745Z</time></trkpt><trkpt lat="45.7696381" lon="8.9708642"><ele>392.2857142857143</ele><time>2026-03-25T14:14:13.789Z</time></trkpt><trkpt lat="45.7697049" lon="8.9708201"><ele>392.42857142857144</ele><time>2026-03-25T14:14:16.866Z</time></trkpt><trkpt lat="45.7697652" lon="8.9707597"><ele>392.57142857142856</ele><time>2026-03-25T14:14:19.844Z</time></trkpt><trkpt lat="45.7698184" lon="8.9706983"><ele>392.7142857142857</ele><time>2026-03-25T14:14:23.806Z</time></trkpt><trkpt lat="45.7698662" lon="8.9706331"><ele>392.8571428571429</ele><time>2026-03-25T14:14:27.909Z</time></trkpt><trkpt lat="45.7699239" lon="8.9705599"><ele>393.0</ele><time>2026-03-25T14:14:33.507Z</time></trkpt><trkpt lat="45.7699698" lon="8.9704844"><ele>393.1666666666667</ele><time>2026-03-25T14:14:37.66Z</time></trkpt><trkpt lat="45.770021" lon="8.9704011"><ele>393.33333333333337</ele><time>2026-03-25T14:14:40.791Z</time></trkpt><trkpt lat="45.7700706" lon="8.9703173"><ele>393.5</ele><time>2026-03-25T14:14:44.817Z</time></trkpt><trkpt lat="45.7701287" lon="8.9702324"><ele>393.6666666666667</ele><time>2026-03-25T14:14:48.828Z</time></trkpt><trkpt lat="45.7701995" lon="8.9701718"><ele>393.83333333333337</ele><time>2026-03-25T14:14:52.764Z</time></trkpt><trkpt lat="45.770255" lon="8.9701156"><ele>394.0</ele><time>2026-03-25T14:14:55.864Z</time></trkpt><trkpt lat="45.7703023" lon="8.9700553"><ele>394.33333333333337</ele><time>2026-03-25T14:14:58.795Z</time></trkpt><trkpt lat="45.7703535" lon="8.9699896"><ele>394.6666666666667</ele><time>2026-03-25T14:15:02.803Z</time></trkpt><trkpt lat="45.7704135" lon="8.969922"><ele>395.0</ele><time>2026-03-25T14:15:06.847Z</time></trkpt><trkpt lat="45.7704715" lon="8.969847"><ele>395.33333333333337</ele><time>2026-03-25T14:15:10.823Z</time></trkpt><trkpt lat="45.7705349" lon="8.9697955"><ele>395.6666666666667</ele><time>2026-03-25T14:15:13.766Z</time></trkpt><trkpt lat="45.7706472" lon="8.96967"><ele>396.0</ele><time>2026-03-25T14:15:16.866Z</time></trkpt><trkpt lat="45.7707421" lon="8.9696106"><ele>396.0</ele><time>2026-03-25T14:15:18.842Z</time></trkpt><trkpt lat="45.7708726" lon="8.9695251"><ele>396.0</ele><time>2026-03-25T14:15:21.766Z</time></trkpt><trkpt lat="45.7709463" lon="8.9694637"><ele>396.0</ele><time>2026-03-25T14:15:22.851Z</time></trkpt><trkpt lat="45.7710154" lon="8.9694143"><ele>396.0</ele><time>2026-03-25T14:15:24.799Z</time></trkpt><trkpt lat="45.7710766" lon="8.9693769"><ele>396.0</ele><time>2026-03-25T14:15:26.861Z</time></trkpt><trkpt lat="45.7711499" lon="8.9693204"><ele>394.6666666666667</ele><time>2026-03-25T14:15:29.767Z</time></trkpt><trkpt lat="45.7712365" lon="8.9692741"><ele>393.33333333333337</ele><time>2026-03-25T14:15:32.866Z</time></trkpt><trkpt lat="45.771298" lon="8.9692431"><ele>392.0</ele><time>2026-03-25T14:15:33.787Z</time></trkpt><trkpt lat="45.7713651" lon="8.969196"><ele>390.6666666666667</ele><time>2026-03-25T14:15:35.726Z</time></trkpt><trkpt lat="45.7714372" lon="8.9691608"><ele>389.33333333333337</ele><time>2026-03-25T14:15:37.749Z</time></trkpt><trkpt lat="45.7715252" lon="8.9691136"><ele>388.0</ele><time>2026-03-25T14:15:40.837Z</time></trkpt><trkpt lat="45.7715913" lon="8.9690576"><ele>388.00000000000006</ele><time>2026-03-25T14:15:42.789Z</time></trkpt><trkpt lat="45.7716787" lon="8.9690034"><ele>388.0</ele><time>2026-03-25T14:15:45.789Z</time></trkpt><trkpt lat="45.7717617" lon="8.9689846"><ele>388.0</ele><time>2026-03-25T14:15:48.731Z</time></trkpt><trkpt lat="45.7718413" lon="8.9689608"><ele>388.0</ele><time>2026-03-25T14:15:51.877Z</time></trkpt><trkpt lat="45.7719121" lon="8.9689264"><ele>388.00000000000006</ele><time>2026-03-25T14:15:54.814Z</time></trkpt><trkpt lat="45.7719953" lon="8.9689006"><ele>388.0</ele><time>2026-03-25T14:15:57.908Z</time></trkpt><trkpt lat="45.7720699" lon="8.9688867"><ele>388.2857142857143</ele><time>2026-03-25T14:16:00.788Z</time></trkpt><trkpt lat="45.7721404" lon="8.9688941"><ele>388.5714285714286</ele><time>2026-03-25T14:16:03.871Z</time></trkpt><trkpt lat="45.7722063" lon="8.968901"><ele>388.8571428571429</ele><time>2026-03-25T14:16:06.843Z</time></trkpt><trkpt lat="45.7722769" lon="8.9689454"><ele>389.1428571428571</ele><time>2026-03-25T14:16:10.852Z</time></trkpt><trkpt lat="45.7723442" lon="8.9689592"><ele>389.42857142857144</ele><time>2026-03-25T14:16:14.884Z</time></trkpt><trkpt lat="45.7724018" lon="8.9690298"><ele>389.7142857142857</ele><time>2026-03-25T14:16:18.713Z</time></trkpt><trkpt lat="45.7724493" lon="8.9691018"><ele>390.0</ele><time>2026-03-25T14:16:21.867Z</time></trkpt><trkpt lat="45.7724947" lon="8.9691942"><ele>390.0</ele><time>2026-03-25T14:16:25.778Z</time></trkpt><trkpt lat="45.7725379" lon="8.9692634"><ele>390.0</ele><time>2026-03-25T14:16:28.838Z</time></trkpt><trkpt lat="45.7726017" lon="8.969337"><ele>390.0</ele><time>2026-03-25T14:16:32.866Z</time></trkpt><trkpt lat="45.7726778" lon="8.9693736"><ele>390.0</ele><time>2026-03-25T14:16:37.773Z</time></trkpt><trkpt lat="45.7727382" lon="8.9694315"><ele>390.0</ele><time>2026-03-25T14:16:40.867Z</time></trkpt><trkpt lat="45.7727919" lon="8.9694807"><ele>390.0</ele><time>2026-03-25T14:16:43.829Z</time></trkpt><trkpt lat="45.7728566" lon="8.9695525"><ele>390.0</ele><time>2026-03-25T14:16:47.856Z</time></trkpt><trkpt lat="45.7729146" lon="8.9696104"><ele>390.3333333333333</ele><time>2026-03-25T14:16:51.865Z</time></trkpt><trkpt lat="45.7729862" lon="8.9696686"><ele>390.66666666666663</ele><time>2026-03-25T14:16:55.872Z</time></trkpt><trkpt lat="45.7730528" lon="8.9696867"><ele>391.0</ele><time>2026-03-25T14:17:00.8Z</time></trkpt><trkpt lat="45.7731063" lon="8.9697561"><ele>391.3333333333333</ele><time>2026-03-25T14:17:04.746Z</time></trkpt><trkpt lat="45.7731669" lon="8.9698392"><ele>391.66666666666663</ele><time>2026-03-25T14:17:08.82Z</time></trkpt><trkpt lat="45.7732358" lon="8.9698791"><ele>392.0</ele><time>2026-03-25T14:17:11.781Z</time></trkpt><trkpt lat="45.7733099" lon="8.969918"><ele>391.99999999999994</ele><time>2026-03-25T14:17:16.839Z</time></trkpt><trkpt lat="45.7733781" lon="8.969966"><ele>392.0</ele><time>2026-03-25T14:17:21.786Z</time></trkpt><trkpt lat="45.7734527" lon="8.970003"><ele>392.0</ele><time>2026-03-25T14:17:25.787Z</time></trkpt><trkpt lat="45.7735342" lon="8.9700407"><ele>392.0</ele><time>2026-03-25T14:17:29.835Z</time></trkpt><trkpt lat="45.7736054" lon="8.9700818"><ele>391.99999999999994</ele><time>2026-03-25T14:17:32.829Z</time></trkpt><trkpt lat="45.7736896" lon="8.9700931"><ele>392.0</ele><time>2026-03-25T14:17:36.857Z</time></trkpt><trkpt lat="45.7737549" lon="8.9700875"><ele>391.66666666666663</ele><time>2026-03-25T14:17:40.788Z</time></trkpt><trkpt lat="45.7738157" lon="8.9700079"><ele>391.3333333333333</ele><time>2026-03-25T14:17:45.046Z</time></trkpt><trkpt lat="45.7738587" lon="8.9699293"><ele>391.0</ele><time>2026-03-25T14:17:48.218Z</time></trkpt><trkpt lat="45.7739245" lon="8.9698359"><ele>390.66666666666663</ele><time>2026-03-25T14:17:51.702Z</time></trkpt><trkpt lat="45.7739626" lon="8.9697636"><ele>390.3333333333333</ele><time>2026-03-25T14:17:53.788Z</time></trkpt><trkpt lat="45.7740048" lon="8.9696873"><ele>390.0</ele><time>2026-03-25T14:17:55.826Z</time></trkpt><trkpt lat="45.7740708" lon="8.9695803"><ele>390.0</ele><time>2026-03-25T14:17:59.288Z</time></trkpt><trkpt lat="45.7741374" lon="8.9694995"><ele>390.0</ele><time>2026-03-25T14:18:02.509Z</time></trkpt><trkpt lat="45.7741984" lon="8.9694227"><ele>390.0</ele><time>2026-03-25T14:18:05.641Z</time></trkpt><trkpt lat="45.7742591" lon="8.9693418"><ele>390.0</ele><time>2026-03-25T14:18:08.764Z</time></trkpt><trkpt lat="45.7743174" lon="8.9692593"><ele>390.0</ele><time>2026-03-25T14:18:11.925Z</time></trkpt><trkpt lat="45.7743641" lon="8.9691829"><ele>390.0</ele><time>2026-03-25T14:18:14.393Z</time></trkpt><trkpt lat="45.7744245" lon="8.9690951"><ele>389.8333333333333</ele><time>2026-03-25T14:18:17.439Z</time></trkpt><trkpt lat="45.7744982" lon="8.9690088"><ele>389.66666666666663</ele><time>2026-03-25T14:18:20.886Z</time></trkpt><trkpt lat="45.7745679" lon="8.9689388"><ele>389.5</ele><time>2026-03-25T14:18:23.862Z</time></trkpt><trkpt lat="45.7746384" lon="8.9688598"><ele>389.3333333333333</ele><time>2026-03-25T14:18:26.757Z</time></trkpt><trkpt lat="45.7747095" lon="8.9687778"><ele>389.16666666666663</ele><time>2026-03-25T14:18:29.866Z</time></trkpt><trkpt lat="45.7747742" lon="8.9687086"><ele>389.0</ele><time>2026-03-25T14:18:32.798Z</time></trkpt><trkpt lat="45.7748454" lon="8.9686469"><ele>388.99999999999994</ele><time>2026-03-25T14:18:35.787Z</time></trkpt><trkpt lat="45.7749156" lon="8.9685844"><ele>389.0</ele><time>2026-03-25T14:18:38.802Z</time></trkpt><trkpt lat="45.7749703" lon="8.9685203"><ele>389.0</ele><time>2026-03-25T14:18:41.847Z</time></trkpt><trkpt lat="45.7750212" lon="8.9684526"><ele>389.0</ele><time>2026-03-25T14:18:44.721Z</time></trkpt><trkpt lat="45.7750841" lon="8.9683847"><ele>388.99999999999994</ele><time>2026-03-25T14:18:47.86Z</time></trkpt><trkpt lat="45.7751437" lon="8.968311"><ele>389.0</ele><time>2026-03-25T14:18:51.726Z</time></trkpt><trkpt lat="45.7752098" lon="8.9682661"><ele>389.14285714285717</ele><time>2026-03-25T14:18:55.908Z</time></trkpt><trkpt lat="45.775278" lon="8.968215"><ele>389.2857142857143</ele><time>2026-03-25T14:18:59.834Z</time></trkpt><trkpt lat="45.7753495" lon="8.9681685"><ele>389.42857142857144</ele><time>2026-03-25T14:19:03.718Z</time></trkpt><trkpt lat="45.7754184" lon="8.9681141"><ele>389.57142857142856</ele><time>2026-03-25T14:19:07.78Z</time></trkpt><trkpt lat="45.7754705" lon="8.9680451"><ele>389.71428571428567</ele><time>2026-03-25T14:19:10.886Z</time></trkpt><trkpt lat="45.7755063" lon="8.9679454"><ele>389.85714285714283</ele><time>2026-03-25T14:19:13.98Z</time></trkpt><trkpt lat="45.7755471" lon="8.9678766"><ele>390.0</ele><time>2026-03-25T14:19:16.796Z</time></trkpt><trkpt lat="45.7756014" lon="8.9678157"><ele>390.0</ele><time>2026-03-25T14:19:19.912Z</time></trkpt><trkpt lat="45.7756664" lon="8.9677756"><ele>390.0</ele><time>2026-03-25T14:19:22.758Z</time></trkpt><trkpt lat="45.7757462" lon="8.9677332"><ele>390.0</ele><time>2026-03-25T14:19:25.717Z</time></trkpt><trkpt lat="45.775821" lon="8.9676773"><ele>390.0</ele><time>2026-03-25T14:19:28.887Z</time></trkpt><trkpt lat="45.7758855" lon="8.9676342"><ele>390.0</ele><time>2026-03-25T14:19:31.796Z</time></trkpt><trkpt lat="45.7759463" lon="8.9675833"><ele>390.0</ele><time>2026-03-25T14:19:34.787Z</time></trkpt><trkpt lat="45.7760094" lon="8.9675511"><ele>390.0</ele><time>2026-03-25T14:19:37.804Z</time></trkpt><trkpt lat="45.7760853" lon="8.9675044"><ele>390.6666666666667</ele><time>2026-03-25T14:19:41.828Z</time></trkpt><trkpt lat="45.7761434" lon="8.9674481"><ele>391.33333333333337</ele><time>2026-03-25T14:19:44.788Z</time></trkpt><trkpt lat="45.7762015" lon="8.9673965"><ele>392.0</ele><time>2026-03-25T14:19:47.789Z</time></trkpt><trkpt lat="45.7762602" lon="8.9673435"><ele>392.6666666666667</ele><time>2026-03-25T14:19:50.813Z</time></trkpt><trkpt lat="45.7763317" lon="8.9672986"><ele>393.33333333333337</ele><time>2026-03-25T14:19:53.846Z</time></trkpt><trkpt lat="45.7764034" lon="8.9672291"><ele>394.0</ele><time>2026-03-25T14:19:56.946Z</time></trkpt><trkpt lat="45.7764749" lon="8.9671541"><ele>394.00000000000006</ele><time>2026-03-25T14:20:00.062Z</time></trkpt><trkpt lat="45.7765514" lon="8.9670875"><ele>394.0</ele><time>2026-03-25T14:20:03.192Z</time></trkpt><trkpt lat="45.7766049" lon="8.9670373"><ele>394.0</ele><time>2026-03-25T14:20:05.545Z</time></trkpt><trkpt lat="45.7766821" lon="8.9669787"><ele>394.0</ele><time>2026-03-25T14:20:08.752Z</time></trkpt><trkpt lat="45.7767492" lon="8.9669231"><ele>394.00000000000006</ele><time>2026-03-25T14:20:11.813Z</time></trkpt><trkpt lat="45.7767986" lon="8.9668671"><ele>394.0</ele><time>2026-03-25T14:20:14.879Z</time></trkpt><trkpt lat="45.7768431" lon="8.9667799"><ele>394.0</ele><time>2026-03-25T14:20:18.789Z</time></trkpt><trkpt lat="45.7768967" lon="8.9667044"><ele>394.0</ele><time>2026-03-25T14:20:23.806Z</time></trkpt><trkpt lat="45.7769474" lon="8.9666266"><ele>394.0</ele><time>2026-03-25T14:20:27.894Z</time></trkpt><trkpt lat="45.7769221" lon="8.9665347"><ele>394.0</ele><time>2026-03-25T14:20:32.906Z</time></trkpt><trkpt lat="45.776869" lon="8.96646"><ele>394.0</ele><time>2026-03-25T14:20:36.867Z</time></trkpt><trkpt lat="45.7768299" lon="8.9663694"><ele>394.0</ele><time>2026-03-25T14:20:40.789Z</time></trkpt><trkpt lat="45.7768115" lon="8.9662777"><ele>394.0</ele><time>2026-03-25T14:20:43.79Z</time></trkpt><trkpt lat="45.7768009" lon="8.9661769"><ele>394.0</ele><time>2026-03-25T14:20:46.749Z</time></trkpt><trkpt lat="45.7767993" lon="8.9660672"><ele>394.0</ele><time>2026-03-25T14:20:49.846Z</time></trkpt><trkpt lat="45.7767884" lon="8.9659601"><ele>394.0</ele><time>2026-03-25T14:20:53.821Z</time></trkpt><trkpt lat="45.7767419" lon="8.9658722"><ele>394.0</ele><time>2026-03-25T14:20:57.731Z</time></trkpt><trkpt lat="45.7767152" lon="8.965781"><ele>394.0</ele><time>2026-03-25T14:21:01.84Z</time></trkpt><trkpt lat="45.7766508" lon="8.9657194"><ele>394.0</ele><time>2026-03-25T14:21:07.726Z</time></trkpt><trkpt lat="45.7766664" lon="8.9658183"><ele>394.0</ele><time>2026-03-25T14:21:11.886Z</time></trkpt><trkpt lat="45.7766078" lon="8.9657598"><ele>394.14285714285717</ele><time>2026-03-25T14:21:15.768Z</time></trkpt><trkpt lat="45.7766459" lon="8.9656373"><ele>394.28571428571433</ele><time>2026-03-25T14:21:19.897Z</time></trkpt><trkpt lat="45.7766748" lon="8.9655501"><ele>394.42857142857144</ele><time>2026-03-25T14:21:23.008Z</time></trkpt><trkpt lat="45.7766954" lon="8.9654586"><ele>394.57142857142856</ele><time>2026-03-25T14:21:25.462Z</time></trkpt><trkpt lat="45.7766976" lon="8.9653683"><ele>394.7142857142857</ele><time>2026-03-25T14:21:27.566Z</time></trkpt><trkpt lat="45.7766872" lon="8.9652693"><ele>394.85714285714283</ele><time>2026-03-25T14:21:29.687Z</time></trkpt><trkpt lat="45.7766696" lon="8.9651736"><ele>395.0</ele><time>2026-03-25T14:21:31.786Z</time></trkpt><trkpt lat="45.7766477" lon="8.965084"><ele>394.8333333333333</ele><time>2026-03-25T14:21:33.85Z</time></trkpt><trkpt lat="45.776623" lon="8.9649984"><ele>394.66666666666663</ele><time>2026-03-25T14:21:35.886Z</time></trkpt><trkpt lat="45.7765824" lon="8.9648846"><ele>394.5</ele><time>2026-03-25T14:21:38.845Z</time></trkpt><trkpt lat="45.7765399" lon="8.9647656"><ele>394.33333333333337</ele><time>2026-03-25T14:21:41.824Z</time></trkpt><trkpt lat="45.7765242" lon="8.964656"><ele>394.1666666666667</ele><time>2026-03-25T14:21:43.787Z</time></trkpt><trkpt lat="45.7764962" lon="8.9645388"><ele>394.0</ele><time>2026-03-25T14:21:46.9Z</time></trkpt><trkpt lat="45.7764646" lon="8.9644327"><ele>394.0</ele><time>2026-03-25T14:21:49.843Z</time></trkpt><trkpt lat="45.7764434" lon="8.9643331"><ele>394.0</ele><time>2026-03-25T14:21:52.701Z</time></trkpt><trkpt lat="45.7764393" lon="8.9642274"><ele>394.0</ele><time>2026-03-25T14:21:55.784Z</time></trkpt><trkpt lat="45.7764438" lon="8.9641329"><ele>394.0</ele><time>2026-03-25T14:21:58.845Z</time></trkpt><trkpt lat="45.7764069" lon="8.9640327"><ele>394.0</ele><time>2026-03-25T14:22:01.788Z</time></trkpt><trkpt lat="45.7763373" lon="8.9639859"><ele>394.0</ele><time>2026-03-25T14:22:05.745Z</time></trkpt><trkpt lat="45.7762977" lon="8.9639123"><ele>394.0</ele><time>2026-03-25T14:22:09.883Z</time></trkpt><trkpt lat="45.7762783" lon="8.9638139"><ele>393.42857142857144</ele><time>2026-03-25T14:22:14.818Z</time></trkpt><trkpt lat="45.7762452" lon="8.9637158"><ele>392.8571428571429</ele><time>2026-03-25T14:22:18.862Z</time></trkpt><trkpt lat="45.7762029" lon="8.9636466"><ele>392.2857142857143</ele><time>2026-03-25T14:22:22.836Z</time></trkpt><trkpt lat="45.7761709" lon="8.9635458"><ele>391.7142857142857</ele><time>2026-03-25T14:22:28.901Z</time></trkpt><trkpt lat="45.7761234" lon="8.9634696"><ele>391.1428571428571</ele><time>2026-03-25T14:22:35.786Z</time></trkpt><trkpt lat="45.7760484" lon="8.9634227"><ele>390.57142857142856</ele><time>2026-03-25T14:22:40.901Z</time></trkpt><trkpt lat="45.7759737" lon="8.9634191"><ele>390.0</ele><time>2026-03-25T14:22:43.915Z</time></trkpt><trkpt lat="45.7759085" lon="8.9634208"><ele>390.0</ele><time>2026-03-25T14:22:46.786Z</time></trkpt><trkpt lat="45.7758386" lon="8.9634524"><ele>390.0</ele><time>2026-03-25T14:22:49.822Z</time></trkpt><trkpt lat="45.7757624" lon="8.9634675"><ele>390.0</ele><time>2026-03-25T14:22:52.852Z</time></trkpt><trkpt lat="45.7756932" lon="8.9634665"><ele>390.0</ele><time>2026-03-25T14:22:55.829Z</time></trkpt><trkpt lat="45.7756181" lon="8.9634366"><ele>390.0</ele><time>2026-03-25T14:22:58.84Z</time></trkpt><trkpt lat="45.7755399" lon="8.9633692"><ele>390.0</ele><time>2026-03-25T14:23:01.906Z</time></trkpt><trkpt lat="45.77547" lon="8.9632903"><ele>390.0</ele><time>2026-03-25T14:23:04.787Z</time></trkpt><trkpt lat="45.7754018" lon="8.9632394"><ele>390.0</ele><time>2026-03-25T14:23:07.787Z</time></trkpt><trkpt lat="45.7753405" lon="8.9632121"><ele>390.0</ele><time>2026-03-25T14:23:09.947Z</time></trkpt><trkpt lat="45.7752682" lon="8.9631719"><ele>390.0</ele><time>2026-03-25T14:23:12.42Z</time></trkpt><trkpt lat="45.7752433" lon="8.963068"><ele>390.0</ele><time>2026-03-25T14:23:18.855Z</time></trkpt><trkpt lat="45.7751792" lon="8.9630814"><ele>390.0</ele><time>2026-03-25T14:23:22.866Z</time></trkpt><trkpt lat="45.775124" lon="8.9631341"><ele>390.0</ele><time>2026-03-25T14:23:27.792Z</time></trkpt><trkpt lat="45.775066" lon="8.9631735"><ele>390.1666666666667</ele><time>2026-03-25T14:23:32.833Z</time></trkpt><trkpt lat="45.7749834" lon="8.9631644"><ele>390.33333333333337</ele><time>2026-03-25T14:23:36.843Z</time></trkpt><trkpt lat="45.7749195" lon="8.9631324"><ele>390.5</ele><time>2026-03-25T14:23:39.821Z</time></trkpt><trkpt lat="45.7748471" lon="8.9631256"><ele>390.6666666666667</ele><time>2026-03-25T14:23:43.713Z</time></trkpt><trkpt lat="45.7747791" lon="8.9631723"><ele>390.83333333333337</ele><time>2026-03-25T14:23:48.788Z</time></trkpt><trkpt lat="45.7747081" lon="8.9631922"><ele>391.0</ele><time>2026-03-25T14:23:55.858Z</time></trkpt><trkpt lat="45.7746425" lon="8.9632888"><ele>391.0</ele><time>2026-03-25T14:23:58.797Z</time></trkpt><trkpt lat="45.7745859" lon="8.9633472"><ele>391.0</ele><time>2026-03-25T14:24:03.746Z</time></trkpt><trkpt lat="45.7745152" lon="8.9633858"><ele>391.0</ele><time>2026-03-25T14:24:08.008Z</time></trkpt><trkpt lat="45.7743833" lon="8.9634633"><ele>391.0</ele><time>2026-03-25T14:24:14.349Z</time></trkpt><trkpt lat="45.774321" lon="8.963527"><ele>391.0</ele><time>2026-03-25T14:24:18.7Z</time></trkpt><trkpt lat="45.7742221" lon="8.9636248"><ele>391.2857142857143</ele><time>2026-03-25T14:24:25.126Z</time></trkpt><trkpt lat="45.7741603" lon="8.9636537"><ele>391.57142857142856</ele><time>2026-03-25T14:24:26.146Z</time></trkpt><trkpt lat="45.7740895" lon="8.9636882"><ele>391.8571428571429</ele><time>2026-03-25T14:24:29.264Z</time></trkpt><trkpt lat="45.7740261" lon="8.9637322"><ele>392.1428571428571</ele><time>2026-03-25T14:24:32.509Z</time></trkpt><trkpt lat="45.7739537" lon="8.9637846"><ele>392.42857142857144</ele><time>2026-03-25T14:24:35.686Z</time></trkpt><trkpt lat="45.773886" lon="8.9638451"><ele>392.7142857142857</ele><time>2026-03-25T14:24:39.849Z</time></trkpt><trkpt lat="45.7738242" lon="8.9638858"><ele>393.0</ele><time>2026-03-25T14:24:42.708Z</time></trkpt><trkpt lat="45.7737598" lon="8.9639157"><ele>393.0</ele><time>2026-03-25T14:24:45.806Z</time></trkpt><trkpt lat="45.7736978" lon="8.9639627"><ele>393.0</ele><time>2026-03-25T14:24:48.886Z</time></trkpt><trkpt lat="45.7736302" lon="8.9640087"><ele>393.0</ele><time>2026-03-25T14:24:51.788Z</time></trkpt><trkpt lat="45.7735609" lon="8.9640685"><ele>393.0</ele><time>2026-03-25T14:24:55.789Z</time></trkpt><trkpt lat="45.7735014" lon="8.9641564"><ele>393.0</ele><time>2026-03-25T14:24:58.787Z</time></trkpt><trkpt lat="45.7734387" lon="8.9642138"><ele>393.0</ele><time>2026-03-25T14:25:01.823Z</time></trkpt><trkpt lat="45.7733876" lon="8.9642701"><ele>393.4</ele><time>2026-03-25T14:25:04.822Z</time></trkpt><trkpt lat="45.7733472" lon="8.9643533"><ele>393.79999999999995</ele><time>2026-03-25T14:25:07.743Z</time></trkpt><trkpt lat="45.7732829" lon="8.9644291"><ele>394.2</ele><time>2026-03-25T14:25:11.812Z</time></trkpt><trkpt lat="45.7732235" lon="8.9644979"><ele>394.6</ele><time>2026-03-25T14:25:15.82Z</time></trkpt><trkpt lat="45.7731545" lon="8.9645579"><ele>395.0</ele><time>2026-03-25T14:25:19.763Z</time></trkpt><trkpt lat="45.7729888" lon="8.9646613"><ele>395.0</ele><time>2026-03-25T14:25:26.848Z</time></trkpt><trkpt lat="45.7729348" lon="8.9647193"><ele>395.0</ele><time>2026-03-25T14:25:28.978Z</time></trkpt><trkpt lat="45.7728581" lon="8.9647682"><ele>395.0</ele><time>2026-03-25T14:25:32.244Z</time></trkpt><trkpt lat="45.7728075" lon="8.9648268"><ele>395.0</ele><time>2026-03-25T14:25:34.308Z</time></trkpt><trkpt lat="45.7727525" lon="8.9648731"><ele>395.0</ele><time>2026-03-25T14:25:36.369Z</time></trkpt><trkpt lat="45.772685" lon="8.964928"><ele>395.0</ele><time>2026-03-25T14:25:39.562Z</time></trkpt><trkpt lat="45.7726194" lon="8.964976"><ele>395.0</ele><time>2026-03-25T14:25:42.808Z</time></trkpt><trkpt lat="45.772555" lon="8.9650173"><ele>394.7142857142857</ele><time>2026-03-25T14:25:46.716Z</time></trkpt><trkpt lat="45.7724994" lon="8.9650646"><ele>394.42857142857144</ele><time>2026-03-25T14:25:50.789Z</time></trkpt><trkpt lat="45.7724394" lon="8.9650968"><ele>394.14285714285717</ele><time>2026-03-25T14:25:54.825Z</time></trkpt><trkpt lat="45.7723638" lon="8.9651428"><ele>393.8571428571429</ele><time>2026-03-25T14:25:59.375Z</time></trkpt><trkpt lat="45.7722977" lon="8.96517"><ele>393.57142857142856</ele><time>2026-03-25T14:26:02.79Z</time></trkpt><trkpt lat="45.7722231" lon="8.9652185"><ele>393.28571428571433</ele><time>2026-03-25T14:26:06.858Z</time></trkpt><trkpt lat="45.7721449" lon="8.9652728"><ele>393.0</ele><time>2026-03-25T14:26:09.788Z</time></trkpt><trkpt lat="45.772028" lon="8.9654054"><ele>393.0</ele><time>2026-03-25T14:26:13.848Z</time></trkpt><trkpt lat="45.7719686" lon="8.9654617"><ele>393.0</ele><time>2026-03-25T14:26:15.849Z</time></trkpt><trkpt lat="45.7719053" lon="8.9655254"><ele>393.0</ele><time>2026-03-25T14:26:18.802Z</time></trkpt><trkpt lat="45.7718434" lon="8.9655672"><ele>393.0</ele><time>2026-03-25T14:26:21.805Z</time></trkpt><trkpt lat="45.7717732" lon="8.9656308"><ele>393.0</ele><time>2026-03-25T14:26:24.866Z</time></trkpt><trkpt lat="45.7717058" lon="8.965652"><ele>393.0</ele><time>2026-03-25T14:26:27.877Z</time></trkpt><trkpt lat="45.7716437" lon="8.9657342"><ele>393.5</ele><time>2026-03-25T14:26:32.808Z</time></trkpt><trkpt lat="45.7715583" lon="8.9657976"><ele>394.0</ele><time>2026-03-25T14:26:34.9Z</time></trkpt><trkpt lat="45.7714823" lon="8.9658385"><ele>394.5</ele><time>2026-03-25T14:26:37.844Z</time></trkpt><trkpt lat="45.7714002" lon="8.9658948"><ele>395.0</ele><time>2026-03-25T14:26:40.859Z</time></trkpt><trkpt lat="45.7713436" lon="8.9659629"><ele>395.5</ele><time>2026-03-25T14:26:43.846Z</time></trkpt><trkpt lat="45.7712874" lon="8.9660281"><ele>396.0</ele><time>2026-03-25T14:26:47.861Z</time></trkpt><trkpt lat="45.7712132" lon="8.9660506"><ele>396.20000000000005</ele><time>2026-03-25T14:26:52.905Z</time></trkpt><trkpt lat="45.7710889" lon="8.9661817"><ele>396.40000000000003</ele><time>2026-03-25T14:27:05.448Z</time></trkpt><trkpt lat="45.7710264" lon="8.9662071"><ele>396.6</ele><time>2026-03-25T14:27:07.287Z</time></trkpt><trkpt lat="45.7709617" lon="8.9661883"><ele>396.8</ele><time>2026-03-25T14:27:10.528Z</time></trkpt><trkpt lat="45.7708985" lon="8.9662013"><ele>397.0</ele><time>2026-03-25T14:27:15.886Z</time></trkpt><trkpt lat="45.7708286" lon="8.966329"><ele>397.1428571428571</ele><time>2026-03-25T14:27:20.882Z</time></trkpt><trkpt lat="45.7707603" lon="8.9663839"><ele>397.2857142857143</ele><time>2026-03-25T14:27:24.813Z</time></trkpt><trkpt lat="45.7707063" lon="8.9664325"><ele>397.42857142857144</ele><time>2026-03-25T14:27:28.4Z</time></trkpt><trkpt lat="45.7706542" lon="8.9665031"><ele>397.57142857142856</ele><time>2026-03-25T14:27:32.627Z</time></trkpt><trkpt lat="45.7705817" lon="8.9665732"><ele>397.7142857142857</ele><time>2026-03-25T14:27:38.003Z</time></trkpt><trkpt lat="45.7705242" lon="8.96661"><ele>397.85714285714283</ele><time>2026-03-25T14:27:41.248Z</time></trkpt><trkpt lat="45.7704654" lon="8.9666428"><ele>398.0</ele><time>2026-03-25T14:27:44.081Z</time></trkpt><trkpt lat="45.7703849" lon="8.9666927"><ele>397.79999999999995</ele><time>2026-03-25T14:27:47.806Z</time></trkpt><trkpt lat="45.7703146" lon="8.9667168"><ele>397.6</ele><time>2026-03-25T14:27:51.848Z</time></trkpt><trkpt lat="45.7702459" lon="8.9668366"><ele>397.4</ele><time>2026-03-25T14:27:55.858Z</time></trkpt><trkpt lat="45.7701938" lon="8.9668907"><ele>397.20000000000005</ele><time>2026-03-25T14:27:57.766Z</time></trkpt><trkpt lat="45.7700531" lon="8.9669959"><ele>397.0</ele><time>2026-03-25T14:28:03.787Z</time></trkpt><trkpt lat="45.769965" lon="8.9670653"><ele>397.6</ele><time>2026-03-25T14:28:10.738Z</time></trkpt><trkpt lat="45.7699002" lon="8.9671072"><ele>398.20000000000005</ele><time>2026-03-25T14:28:12.812Z</time></trkpt><trkpt lat="45.7698342" lon="8.967129"><ele>398.8</ele><time>2026-03-25T14:28:18.762Z</time></trkpt><trkpt lat="45.7697042" lon="8.9671605"><ele>399.4</ele><time>2026-03-25T14:28:23.697Z</time></trkpt><trkpt lat="45.7695615" lon="8.9672103"><ele>400.0</ele><time>2026-03-25T14:28:30.909Z</time></trkpt><trkpt lat="45.7694895" lon="8.9672261"><ele>400.0</ele><time>2026-03-25T14:28:34.807Z</time></trkpt><trkpt lat="45.7694299" lon="8.9672554"><ele>400.0</ele><time>2026-03-25T14:28:37.782Z</time></trkpt><trkpt lat="45.7693443" lon="8.9672773"><ele>400.0</ele><time>2026-03-25T14:28:40.789Z</time></trkpt><trkpt lat="45.7692088" lon="8.9673056"><ele>400.0</ele><time>2026-03-25T14:28:44.586Z</time></trkpt><trkpt lat="45.7691293" lon="8.9672757"><ele>400.0</ele><time>2026-03-25T14:28:46.788Z</time></trkpt><trkpt lat="45.7690414" lon="8.9672448"><ele>399.8571428571429</ele><time>2026-03-25T14:28:48.787Z</time></trkpt><trkpt lat="45.768947" lon="8.9672393"><ele>399.7142857142857</ele><time>2026-03-25T14:28:50.899Z</time></trkpt><trkpt lat="45.7688859" lon="8.9672046"><ele>399.57142857142856</ele><time>2026-03-25T14:28:52.792Z</time></trkpt><trkpt lat="45.7688224" lon="8.9671894"><ele>399.42857142857144</ele><time>2026-03-25T14:28:54.786Z</time></trkpt><trkpt lat="45.7687579" lon="8.9671706"><ele>399.2857142857143</ele><time>2026-03-25T14:28:56.803Z</time></trkpt><trkpt lat="45.7686637" lon="8.9671596"><ele>399.14285714285717</ele><time>2026-03-25T14:28:59.865Z</time></trkpt><trkpt lat="45.7686001" lon="8.9671488"><ele>399.0</ele><time>2026-03-25T14:29:01.843Z</time></trkpt><trkpt lat="45.7685334" lon="8.9671375"><ele>397.8333333333333</ele><time>2026-03-25T14:29:03.768Z</time></trkpt><trkpt lat="45.7684457" lon="8.9671125"><ele>396.66666666666663</ele><time>2026-03-25T14:29:06.788Z</time></trkpt><trkpt lat="45.7683745" lon="8.9670938"><ele>395.5</ele><time>2026-03-25T14:29:09.828Z</time></trkpt><trkpt lat="45.7683065" lon="8.9670518"><ele>394.3333333333333</ele><time>2026-03-25T14:29:12.841Z</time></trkpt><trkpt lat="45.7682379" lon="8.9670052"><ele>393.16666666666663</ele><time>2026-03-25T14:29:15.818Z</time></trkpt><trkpt lat="45.7681668" lon="8.9669636"><ele>392.0</ele><time>2026-03-25T14:29:18.797Z</time></trkpt><trkpt lat="45.7680888" lon="8.9669378"><ele>392.0</ele><time>2026-03-25T14:29:22.807Z</time></trkpt><trkpt lat="45.7680228" lon="8.9669281"><ele>392.0</ele><time>2026-03-25T14:29:26.817Z</time></trkpt><trkpt lat="45.7679605" lon="8.9669458"><ele>392.0</ele><time>2026-03-25T14:29:31.825Z</time></trkpt><trkpt lat="45.7678891" lon="8.9669257"><ele>392.0</ele><time>2026-03-25T14:29:35.821Z</time></trkpt><trkpt lat="45.7678237" lon="8.9669287"><ele>392.0</ele><time>2026-03-25T14:29:39.788Z</time></trkpt><trkpt lat="45.7677565" lon="8.96694"><ele>392.0</ele><time>2026-03-25T14:29:45.711Z</time></trkpt><trkpt lat="45.7676876" lon="8.9669496"><ele>392.0</ele><time>2026-03-25T14:29:51.727Z</time></trkpt><trkpt lat="45.7676179" lon="8.9669448"><ele>392.3333333333333</ele><time>2026-03-25T14:29:54.858Z</time></trkpt><trkpt lat="45.7675427" lon="8.9669201"><ele>392.66666666666663</ele><time>2026-03-25T14:29:58.838Z</time></trkpt><trkpt lat="45.7674797" lon="8.9669078"><ele>393.0</ele><time>2026-03-25T14:30:03.827Z</time></trkpt><trkpt lat="45.7674053" lon="8.9668881"><ele>393.33333333333337</ele><time>2026-03-25T14:30:10.02Z</time></trkpt><trkpt lat="45.7673261" lon="8.9668718"><ele>393.6666666666667</ele><time>2026-03-25T14:30:15.746Z</time></trkpt><trkpt lat="45.7672476" lon="8.9668275"><ele>394.0</ele><time>2026-03-25T14:30:21.077Z</time></trkpt><trkpt lat="45.7671865" lon="8.9667723"><ele>394.2857142857143</ele><time>2026-03-25T14:30:25.367Z</time></trkpt><trkpt lat="45.7671298" lon="8.9666838"><ele>394.57142857142856</ele><time>2026-03-25T14:30:29.706Z</time></trkpt><trkpt lat="45.7670708" lon="8.9666199"><ele>394.8571428571429</ele><time>2026-03-25T14:30:32.802Z</time></trkpt><trkpt lat="45.7670313" lon="8.966547"><ele>395.1428571428571</ele><time>2026-03-25T14:30:35.806Z</time></trkpt><trkpt lat="45.7669761" lon="8.966476"><ele>395.4285714285714</ele><time>2026-03-25T14:30:38.874Z</time></trkpt><trkpt lat="45.7669177" lon="8.9664044"><ele>395.7142857142857</ele><time>2026-03-25T14:30:44.831Z</time></trkpt><trkpt lat="45.7668659" lon="8.9663485"><ele>396.0</ele><time>2026-03-25T14:30:49.787Z</time></trkpt><trkpt lat="45.7668031" lon="8.9663114"><ele>396.5</ele><time>2026-03-25T14:30:52.735Z</time></trkpt><trkpt lat="45.7667456" lon="8.9662602"><ele>397.0</ele><time>2026-03-25T14:30:55.798Z</time></trkpt><trkpt lat="45.7666684" lon="8.9661991"><ele>397.5</ele><time>2026-03-25T14:30:59.659Z</time></trkpt><trkpt lat="45.7665941" lon="8.9661625"><ele>398.0</ele><time>2026-03-25T14:31:02.819Z</time></trkpt><trkpt lat="45.7665195" lon="8.9661265"><ele>398.5</ele><time>2026-03-25T14:31:05.796Z</time></trkpt><trkpt lat="45.766458" lon="8.9660729"><ele>399.0</ele><time>2026-03-25T14:31:08.768Z</time></trkpt><trkpt lat="45.7663895" lon="8.9660379"><ele>399.0</ele><time>2026-03-25T14:31:11.841Z</time></trkpt><trkpt lat="45.7663183" lon="8.9660357"><ele>399.0</ele><time>2026-03-25T14:31:14.788Z</time></trkpt><trkpt lat="45.7662482" lon="8.9660086"><ele>399.0</ele><time>2026-03-25T14:31:17.848Z</time></trkpt><trkpt lat="45.7661732" lon="8.9659823"><ele>399.0</ele><time>2026-03-25T14:31:20.803Z</time></trkpt><trkpt lat="45.7661065" lon="8.9659629"><ele>399.0</ele><time>2026-03-25T14:31:23.789Z</time></trkpt><trkpt lat="45.7660336" lon="8.965911"><ele>399.0</ele><time>2026-03-25T14:31:27.791Z</time></trkpt><trkpt lat="45.7659685" lon="8.9658798"><ele>399.0</ele><time>2026-03-25T14:31:31.891Z</time></trkpt><trkpt lat="45.7658845" lon="8.9658683"><ele>399.5</ele><time>2026-03-25T14:31:35.858Z</time></trkpt><trkpt lat="45.7658195" lon="8.9658349"><ele>400.0</ele><time>2026-03-25T14:31:39.267Z</time></trkpt><trkpt lat="45.7657589" lon="8.9657896"><ele>400.5</ele><time>2026-03-25T14:31:43.484Z</time></trkpt><trkpt lat="45.7656957" lon="8.9657307"><ele>401.0</ele><time>2026-03-25T14:31:46.77Z</time></trkpt><trkpt lat="45.765635" lon="8.9656535"><ele>401.5</ele><time>2026-03-25T14:31:51.725Z</time></trkpt><trkpt lat="45.7655837" lon="8.9655652"><ele>402.0</ele><time>2026-03-25T14:31:55.856Z</time></trkpt><trkpt lat="45.7655338" lon="8.9654764"><ele>402.0</ele><time>2026-03-25T14:31:59.866Z</time></trkpt><trkpt lat="45.7654875" lon="8.9654114"><ele>402.0</ele><time>2026-03-25T14:32:02.844Z</time></trkpt><trkpt lat="45.7654474" lon="8.9653142"><ele>402.0</ele><time>2026-03-25T14:32:05.926Z</time></trkpt><trkpt lat="45.7654072" lon="8.9652369"><ele>402.0</ele><time>2026-03-25T14:32:08.866Z</time></trkpt><trkpt lat="45.7653781" lon="8.9651518"><ele>402.0</ele><time>2026-03-25T14:32:12.789Z</time></trkpt><trkpt lat="45.765305" lon="8.9650195"><ele>402.0</ele><time>2026-03-25T14:32:14.787Z</time></trkpt><trkpt lat="45.7652631" lon="8.9649235"><ele>402.1666666666667</ele><time>2026-03-25T14:32:17.805Z</time></trkpt><trkpt lat="45.7652164" lon="8.9648264"><ele>402.33333333333337</ele><time>2026-03-25T14:32:21.866Z</time></trkpt><trkpt lat="45.765185" lon="8.96473"><ele>402.5</ele><time>2026-03-25T14:32:27.008Z</time></trkpt><trkpt lat="45.7651358" lon="8.9646496"><ele>402.6666666666667</ele><time>2026-03-25T14:32:33.626Z</time></trkpt><trkpt lat="45.7650895" lon="8.9645846"><ele>402.83333333333337</ele><time>2026-03-25T14:32:37.786Z</time></trkpt><trkpt lat="45.7650276" lon="8.9644878"><ele>403.0</ele><time>2026-03-25T14:32:42.824Z</time></trkpt><trkpt lat="45.7649678" lon="8.9644344"><ele>403.00000000000006</ele><time>2026-03-25T14:32:47.129Z</time></trkpt><trkpt lat="45.764945" lon="8.9642733"><ele>403.0</ele><time>2026-03-25T14:32:49.668Z</time></trkpt><trkpt lat="45.764902" lon="8.9641748"><ele>403.0</ele><time>2026-03-25T14:32:52.866Z</time></trkpt><trkpt lat="45.7648362" lon="8.9641035"><ele>403.0</ele><time>2026-03-25T14:32:56.908Z</time></trkpt><trkpt lat="45.7647677" lon="8.9640674"><ele>403.00000000000006</ele><time>2026-03-25T14:32:59.787Z</time></trkpt><trkpt lat="45.7646981" lon="8.9640622"><ele>403.0</ele><time>2026-03-25T14:33:03.745Z</time></trkpt><trkpt lat="45.7646322" lon="8.9640692"><ele>403.42857142857144</ele><time>2026-03-25T14:33:06.906Z</time></trkpt><trkpt lat="45.7645692" lon="8.9640886"><ele>403.85714285714283</ele><time>2026-03-25T14:33:10.2Z</time></trkpt><trkpt lat="45.7644951" lon="8.9641135"><ele>404.2857142857143</ele><time>2026-03-25T14:33:13.764Z</time></trkpt><trkpt lat="45.7644258" lon="8.9641377"><ele>404.7142857142857</ele><time>2026-03-25T14:33:16.847Z</time></trkpt><trkpt lat="45.7643571" lon="8.9641691"><ele>405.1428571428571</ele><time>2026-03-25T14:33:19.826Z</time></trkpt><trkpt lat="45.7642929" lon="8.9642027"><ele>405.57142857142856</ele><time>2026-03-25T14:33:22.804Z</time></trkpt><trkpt lat="45.7642331" lon="8.9642395"><ele>406.0</ele><time>2026-03-25T14:33:25.868Z</time></trkpt><trkpt lat="45.7641658" lon="8.9642785"><ele>406.0</ele><time>2026-03-25T14:33:29.789Z</time></trkpt><trkpt lat="45.7640972" lon="8.9643136"><ele>406.0</ele><time>2026-03-25T14:33:33.803Z</time></trkpt><trkpt lat="45.7640287" lon="8.9643392"><ele>406.0</ele><time>2026-03-25T14:33:37.909Z</time></trkpt><trkpt lat="45.763952" lon="8.9643536"><ele>406.0</ele><time>2026-03-25T14:33:41.787Z</time></trkpt><trkpt lat="45.7638897" lon="8.9643754"><ele>406.0</ele><time>2026-03-25T14:33:44.799Z</time></trkpt><trkpt lat="45.7638249" lon="8.9643977"><ele>406.0</ele><time>2026-03-25T14:33:47.766Z</time></trkpt><trkpt lat="45.7637579" lon="8.9644393"><ele>406.0</ele><time>2026-03-25T14:33:51.788Z</time></trkpt><trkpt lat="45.7636943" lon="8.9644785"><ele>406.0</ele><time>2026-03-25T14:33:55.797Z</time></trkpt><trkpt lat="45.7636253" lon="8.9644941"><ele>406.0</ele><time>2026-03-25T14:34:00.873Z</time></trkpt><trkpt lat="45.7635603" lon="8.9645321"><ele>406.0</ele><time>2026-03-25T14:34:06.909Z</time></trkpt><trkpt lat="45.7635027" lon="8.9645805"><ele>406.0</ele><time>2026-03-25T14:34:13.326Z</time></trkpt><trkpt lat="45.7634463" lon="8.9646254"><ele>406.0</ele><time>2026-03-25T14:34:19.908Z</time></trkpt><trkpt lat="45.7633811" lon="8.9646509"><ele>406.0</ele><time>2026-03-25T14:34:24.806Z</time></trkpt><trkpt lat="45.7633189" lon="8.9646864"><ele>406.0</ele><time>2026-03-25T14:34:30.852Z</time></trkpt><trkpt lat="45.7632785" lon="8.9647702"><ele>406.50000000000006</ele><time>2026-03-25T14:34:37.789Z</time></trkpt><trkpt lat="45.7632355" lon="8.9648491"><ele>407.0</ele><time>2026-03-25T14:34:46.789Z</time></trkpt><trkpt lat="45.7631878" lon="8.9649111"><ele>407.5</ele><time>2026-03-25T14:34:54.794Z</time></trkpt><trkpt lat="45.7631608" lon="8.9650816"><ele>408.0</ele><time>2026-03-25T14:35:03.844Z</time></trkpt><trkpt lat="45.7631716" lon="8.9651861"><ele>408.50000000000006</ele><time>2026-03-25T14:35:06.772Z</time></trkpt><trkpt lat="45.7631687" lon="8.9653481"><ele>409.0</ele><time>2026-03-25T14:35:08.658Z</time></trkpt><trkpt lat="45.7631684" lon="8.9654411"><ele>407.79999999999995</ele><time>2026-03-25T14:35:09.577Z</time></trkpt><trkpt lat="45.7631536" lon="8.9655352"><ele>406.59999999999997</ele><time>2026-03-25T14:35:14.728Z</time></trkpt><trkpt lat="45.7630699" lon="8.965694"><ele>405.4</ele><time>2026-03-25T14:35:21.828Z</time></trkpt><trkpt lat="45.7630082" lon="8.965756"><ele>404.2</ele><time>2026-03-25T14:35:26.008Z</time></trkpt><trkpt lat="45.762961" lon="8.9658163"><ele>403.0</ele><time>2026-03-25T14:35:30.513Z</time></trkpt><trkpt lat="45.7628395" lon="8.9659071"><ele>403.00000000000006</ele><time>2026-03-25T14:35:35.804Z</time></trkpt><trkpt lat="45.7627819" lon="8.9659703"><ele>403.0</ele><time>2026-03-25T14:35:38.789Z</time></trkpt><trkpt lat="45.7627228" lon="8.9660565"><ele>403.0</ele><time>2026-03-25T14:35:42.955Z</time></trkpt><trkpt lat="45.7626511" lon="8.9660874"><ele>403.0</ele><time>2026-03-25T14:35:46.404Z</time></trkpt><trkpt lat="45.7625964" lon="8.9661376"><ele>403.00000000000006</ele><time>2026-03-25T14:35:50.86Z</time></trkpt><trkpt lat="45.762536" lon="8.9662076"><ele>403.0</ele><time>2026-03-25T14:35:54.82Z</time></trkpt><trkpt lat="45.7624485" lon="8.9662537"><ele>403.00000000000006</ele><time>2026-03-25T14:35:58.83Z</time></trkpt><trkpt lat="45.762381" lon="8.9662939"><ele>403.0</ele><time>2026-03-25T14:36:01.808Z</time></trkpt><trkpt lat="45.7623376" lon="8.9663616"><ele>403.0</ele><time>2026-03-25T14:36:05.825Z</time></trkpt><trkpt lat="45.7622288" lon="8.9663766"><ele>403.0</ele><time>2026-03-25T14:36:06.904Z</time></trkpt><trkpt lat="45.7621489" lon="8.9664012"><ele>403.00000000000006</ele><time>2026-03-25T14:36:10.389Z</time></trkpt><trkpt lat="45.7620969" lon="8.9664564"><ele>403.0</ele><time>2026-03-25T14:36:13.866Z</time></trkpt><trkpt lat="45.7620463" lon="8.9665503"><ele>403.0</ele><time>2026-03-25T14:36:17.792Z</time></trkpt><trkpt lat="45.7620104" lon="8.9666302"><ele>403.0</ele><time>2026-03-25T14:36:21.086Z</time></trkpt><trkpt lat="45.7619882" lon="8.9667321"><ele>403.0</ele><time>2026-03-25T14:36:25.423Z</time></trkpt><trkpt lat="45.7619661" lon="8.96684"><ele>403.0</ele><time>2026-03-25T14:36:31.822Z</time></trkpt><trkpt lat="45.7619426" lon="8.9669423"><ele>403.0</ele><time>2026-03-25T14:36:35.833Z</time></trkpt><trkpt lat="45.7619522" lon="8.967047"><ele>403.0</ele><time>2026-03-25T14:36:41.949Z</time></trkpt><trkpt lat="45.7619779" lon="8.9671359"><ele>403.0</ele><time>2026-03-25T14:36:46.736Z</time></trkpt><trkpt lat="45.7620528" lon="8.9671638"><ele>402.00000000000006</ele><time>2026-03-25T14:36:49.809Z</time></trkpt><trkpt lat="45.7621159" lon="8.967164"><ele>401.0</ele><time>2026-03-25T14:36:51.853Z</time></trkpt><trkpt lat="45.762163" lon="8.9672526"><ele>400.0</ele><time>2026-03-25T14:36:56.408Z</time></trkpt><trkpt lat="45.7622167" lon="8.9673318"><ele>399.0</ele><time>2026-03-25T14:37:00.806Z</time></trkpt><trkpt lat="45.762268" lon="8.9674197"><ele>398.00000000000006</ele><time>2026-03-25T14:37:04.697Z</time></trkpt><trkpt lat="45.7623156" lon="8.9675158"><ele>397.0</ele><time>2026-03-25T14:37:08.1Z</time></trkpt><trkpt lat="45.7623582" lon="8.9676008"><ele>396.33333333333337</ele><time>2026-03-25T14:37:11.625Z</time></trkpt><trkpt lat="45.7624022" lon="8.9676706"><ele>395.6666666666667</ele><time>2026-03-25T14:37:16.236Z</time></trkpt><trkpt lat="45.7624792" lon="8.9677163"><ele>395.0</ele><time>2026-03-25T14:37:21.786Z</time></trkpt><trkpt lat="45.7625791" lon="8.9677455"><ele>394.33333333333337</ele><time>2026-03-25T14:37:24.787Z</time></trkpt><trkpt lat="45.7626484" lon="8.9677774"><ele>393.6666666666667</ele><time>2026-03-25T14:37:28.786Z</time></trkpt><trkpt lat="45.7627206" lon="8.9678186"><ele>393.0</ele><time>2026-03-25T14:37:32.787Z</time></trkpt><trkpt lat="45.7627665" lon="8.9678914"><ele>393.00000000000006</ele><time>2026-03-25T14:37:36.805Z</time></trkpt><trkpt lat="45.7628136" lon="8.9679816"><ele>393.0</ele><time>2026-03-25T14:37:39.786Z</time></trkpt><trkpt lat="45.7628196" lon="8.968095"><ele>393.0</ele><time>2026-03-25T14:37:42.78Z</time></trkpt><trkpt lat="45.7628274" lon="8.9681846"><ele>393.0</ele><time>2026-03-25T14:37:44.879Z</time></trkpt><trkpt lat="45.7628375" lon="8.9682901"><ele>393.0</ele><time>2026-03-25T14:37:47.747Z</time></trkpt><trkpt lat="45.7628371" lon="8.9684034"><ele>393.00000000000006</ele><time>2026-03-25T14:37:50.846Z</time></trkpt><trkpt lat="45.7628079" lon="8.9685024"><ele>393.0</ele><time>2026-03-25T14:37:53.853Z</time></trkpt><trkpt lat="45.7627636" lon="8.9685877"><ele>393.0</ele><time>2026-03-25T14:37:56.866Z</time></trkpt><trkpt lat="45.7627262" lon="8.9686929"><ele>393.0</ele><time>2026-03-25T14:37:59.81Z</time></trkpt><trkpt lat="45.7626922" lon="8.9688567"><ele>393.0</ele><time>2026-03-25T14:38:03.787Z</time></trkpt><trkpt lat="45.7626811" lon="8.9689571"><ele>393.0</ele><time>2026-03-25T14:38:07.83Z</time></trkpt><trkpt lat="45.7626448" lon="8.9690531"><ele>393.0</ele><time>2026-03-25T14:38:12.789Z</time></trkpt><trkpt lat="45.7626012" lon="8.9691216"><ele>393.0</ele><time>2026-03-25T14:38:16.706Z</time></trkpt><trkpt lat="45.7625529" lon="8.9692129"><ele>392.3333333333333</ele><time>2026-03-25T14:38:21.006Z</time></trkpt><trkpt lat="45.7625043" lon="8.9693131"><ele>391.66666666666663</ele><time>2026-03-25T14:38:25.206Z</time></trkpt><trkpt lat="45.7624521" lon="8.9693769"><ele>391.0</ele><time>2026-03-25T14:38:29.557Z</time></trkpt><trkpt lat="45.7623988" lon="8.9694431"><ele>390.3333333333333</ele><time>2026-03-25T14:38:34.867Z</time></trkpt><trkpt lat="45.762331" lon="8.9695021"><ele>389.66666666666663</ele><time>2026-03-25T14:38:40.84Z</time></trkpt><trkpt lat="45.762258" lon="8.9695263"><ele>389.0</ele><time>2026-03-25T14:38:45.864Z</time></trkpt><trkpt lat="45.7621448" lon="8.9695545"><ele>389.0</ele><time>2026-03-25T14:38:55.901Z</time></trkpt><trkpt lat="45.762062" lon="8.9695592"><ele>389.0</ele><time>2026-03-25T14:39:04.788Z</time></trkpt><trkpt lat="45.7619968" lon="8.96952"><ele>389.0</ele><time>2026-03-25T14:39:08.874Z</time></trkpt><trkpt lat="45.7618786" lon="8.9695457"><ele>389.0</ele><time>2026-03-25T14:39:14.848Z</time></trkpt><trkpt lat="45.7618047" lon="8.9695384"><ele>389.0</ele><time>2026-03-25T14:39:18.858Z</time></trkpt><trkpt lat="45.7616486" lon="8.9695415"><ele>388.16666666666663</ele><time>2026-03-25T14:39:25.961Z</time></trkpt><trkpt lat="45.7615721" lon="8.9695611"><ele>387.3333333333333</ele><time>2026-03-25T14:39:29.787Z</time></trkpt><trkpt lat="45.7614265" lon="8.969574"><ele>386.5</ele><time>2026-03-25T14:39:34.787Z</time></trkpt><trkpt lat="45.7613583" lon="8.9695703"><ele>385.66666666666663</ele><time>2026-03-25T14:39:37.876Z</time></trkpt><trkpt lat="45.7612907" lon="8.9695789"><ele>384.8333333333333</ele><time>2026-03-25T14:39:41.886Z</time></trkpt><trkpt lat="45.7612368" lon="8.9696373"><ele>384.0</ele><time>2026-03-25T14:39:56.788Z</time></trkpt><trkpt lat="45.7611802" lon="8.9697504"><ele>384.0</ele><time>2026-03-25T14:40:03.788Z</time></trkpt><trkpt lat="45.7611336" lon="8.9698149"><ele>384.0</ele><time>2026-03-25T14:40:12.818Z</time></trkpt><trkpt lat="45.761074" lon="8.969869"><ele>384.0</ele><time>2026-03-25T14:40:27.825Z</time></trkpt><trkpt lat="45.76101" lon="8.9698733"><ele>384.0</ele><time>2026-03-25T14:40:39.854Z</time></trkpt><trkpt lat="45.7609119" lon="8.9699485"><ele>384.0</ele><time>2026-03-25T14:41:06.787Z</time></trkpt><trkpt lat="45.7608346" lon="8.9700459"><ele>384.0</ele><time>2026-03-25T14:41:10.787Z</time></trkpt><trkpt lat="45.7607779" lon="8.9700881"><ele>383.5</ele><time>2026-03-25T14:41:23.847Z</time></trkpt><trkpt lat="45.7606911" lon="8.9701043"><ele>383.0</ele><time>2026-03-25T14:41:32.788Z</time></trkpt><trkpt lat="45.7606228" lon="8.9701271"><ele>382.5</ele><time>2026-03-25T14:41:42.787Z</time></trkpt><trkpt lat="45.7605589" lon="8.9701184"><ele>382.0</ele><time>2026-03-25T14:41:53.86Z</time></trkpt><trkpt lat="45.7604954" lon="8.9701162"><ele>381.5</ele><time>2026-03-25T14:42:05.788Z</time></trkpt><trkpt lat="45.7603641" lon="8.9701671"><ele>381.0</ele><time>2026-03-25T14:42:25.822Z</time></trkpt><trkpt lat="45.7603005" lon="8.9702037"><ele>379.5</ele><time>2026-03-25T14:42:31.788Z</time></trkpt><trkpt lat="45.7601993" lon="8.9702333"><ele>378.0</ele><time>2026-03-25T14:42:42.788Z</time></trkpt><trkpt lat="45.7601345" lon="8.9702268"><ele>376.5</ele><time>2026-03-25T14:42:52.857Z</time></trkpt><trkpt lat="45.7600469" lon="8.9702043"><ele>375.0</ele><time>2026-03-25T14:43:02.822Z</time></trkpt><trkpt lat="45.7599809" lon="8.9701821"><ele>373.5</ele><time>2026-03-25T14:43:08.788Z</time></trkpt><trkpt lat="45.7598746" lon="8.9701745"><ele>372.0</ele><time>2026-03-25T14:43:22.87Z</time></trkpt><trkpt lat="45.7598145" lon="8.9702101"><ele>372.0</ele><time>2026-03-25T14:43:30.787Z</time></trkpt><trkpt lat="45.7597356" lon="8.9702372"><ele>372.0</ele><time>2026-03-25T14:43:39.824Z</time></trkpt><trkpt lat="45.7596745" lon="8.9702743"><ele>372.0</ele><time>2026-03-25T14:43:48.873Z</time></trkpt><trkpt lat="45.759573" lon="8.9703231"><ele>372.0</ele><time>2026-03-25T14:44:02.788Z</time></trkpt><trkpt lat="45.7595046" lon="8.9703463"><ele>372.0</ele><time>2026-03-25T14:44:11.789Z</time></trkpt><trkpt lat="45.759385" lon="8.9703669"><ele>372.0</ele><time>2026-03-25T14:44:28.854Z</time></trkpt><trkpt lat="45.7593191" lon="8.9703697"><ele>372.1666666666667</ele><time>2026-03-25T14:44:36.79Z</time></trkpt><trkpt lat="45.7592106" lon="8.9703621"><ele>372.3333333333333</ele><time>2026-03-25T14:44:50.847Z</time></trkpt><trkpt lat="45.7591465" lon="8.9703587"><ele>372.5</ele><time>2026-03-25T14:44:56.804Z</time></trkpt><trkpt lat="45.7591196" lon="8.9702746"><ele>372.66666666666663</ele><time>2026-03-25T14:45:25.79Z</time></trkpt><trkpt lat="45.7591092" lon="8.9701594"><ele>372.8333333333333</ele><time>2026-03-25T14:45:31.857Z</time></trkpt><trkpt lat="45.759115" lon="8.970068"><ele>373.0</ele><time>2026-03-25T14:45:42.854Z</time></trkpt><trkpt lat="45.7591598" lon="8.9699416"><ele>373.66666666666663</ele><time>2026-03-25T14:45:50.872Z</time></trkpt><trkpt lat="45.7591966" lon="8.9698423"><ele>374.3333333333333</ele><time>2026-03-25T14:45:54.786Z</time></trkpt><trkpt lat="45.7592283" lon="8.9697545"><ele>375.0</ele><time>2026-03-25T14:46:02.787Z</time></trkpt><trkpt lat="45.759291" lon="8.9696236"><ele>375.6666666666667</ele><time>2026-03-25T14:46:31.766Z</time></trkpt><trkpt lat="45.7593601" lon="8.9696022"><ele>376.33333333333337</ele><time>2026-03-25T14:46:37.845Z</time></trkpt><trkpt lat="45.7594404" lon="8.9695772"><ele>377.0</ele><time>2026-03-25T14:46:40.824Z</time></trkpt><trkpt lat="45.7595136" lon="8.9695532"><ele>377.4285714285714</ele><time>2026-03-25T14:46:43.726Z</time></trkpt><trkpt lat="45.7595785" lon="8.9695425"><ele>377.85714285714283</ele><time>2026-03-25T14:46:45.444Z</time></trkpt><trkpt lat="45.7596413" lon="8.9695192"><ele>378.2857142857143</ele><time>2026-03-25T14:46:47.867Z</time></trkpt><trkpt lat="45.7596857" lon="8.9694447"><ele>378.71428571428567</ele><time>2026-03-25T14:46:50.791Z</time></trkpt><trkpt lat="45.7597109" lon="8.9693554"><ele>379.14285714285717</ele><time>2026-03-25T14:46:53.741Z</time></trkpt><trkpt lat="45.7597453" lon="8.9692589"><ele>379.57142857142856</ele><time>2026-03-25T14:46:57.844Z</time></trkpt><trkpt lat="45.7597729" lon="8.9691503"><ele>380.0</ele><time>2026-03-25T14:47:01.867Z</time></trkpt><trkpt lat="45.7597901" lon="8.9690417"><ele>380.2857142857143</ele><time>2026-03-25T14:47:05.798Z</time></trkpt><trkpt lat="45.7597858" lon="8.9689512"><ele>380.57142857142856</ele><time>2026-03-25T14:47:08.789Z</time></trkpt><trkpt lat="45.7597605" lon="8.9688425"><ele>380.8571428571429</ele><time>2026-03-25T14:47:12.907Z</time></trkpt><trkpt lat="45.7597243" lon="8.9687414"><ele>381.1428571428571</ele><time>2026-03-25T14:47:17.691Z</time></trkpt><trkpt lat="45.759692" lon="8.9686435"><ele>381.4285714285714</ele><time>2026-03-25T14:47:21.844Z</time></trkpt><trkpt lat="45.7596666" lon="8.9685562"><ele>381.7142857142857</ele><time>2026-03-25T14:47:24.862Z</time></trkpt><trkpt lat="45.7596366" lon="8.9684724"><ele>382.0</ele><time>2026-03-25T14:47:27.795Z</time></trkpt><trkpt lat="45.759588" lon="8.9683894"><ele>382.0</ele><time>2026-03-25T14:47:31.803Z</time></trkpt><trkpt lat="45.7595536" lon="8.9683133"><ele>385.0</ele><time>2026-03-25T14:47:46.811Z</time></trkpt></trkseg></trk></gpx>